Time;durP1;ratioP1;P1;durP2;ratioP2;P2;SDS_P1;SDS_P2;PMS_P1;PMS_P2;Temp;Humidity;BMP_temperature;BMP_pressure;BME280_temperature;BME280_humidity;BME280_pressure;Samples;Min_cycle;Max_cycle;Signal;HPM_P1;HPM_P2
2021/08/01 00:01:24;;;;;;;17.85;5.38;;;15.20;99.90;;;;;;5038145;28;20039;-87
2021/08/01 00:03:51;;;;;;;17.13;4.95;;;15.20;99.90;;;;;;5082304;28;20048;-87
2021/08/01 00:06:17;;;;;;;11.57;5.00;;;15.30;99.90;;;;;;5098394;28;20097;-86
2021/08/01 00:08:44;;;;;;;17.05;6.45;;;15.20;99.90;;;;;;5072715;28;20395;-87
2021/08/01 00:11:10;;;;;;;27.27;6.35;;;15.20;99.90;;;;;;5055321;28;20040;-87
2021/08/01 00:13:36;;;;;;;30.13;6.00;;;15.30;99.90;;;;;;5073507;28;20052;-87
2021/08/01 00:16:02;;;;;;;18.27;5.75;;;15.20;99.90;;;;;;5052542;28;20064;-87
2021/08/01 00:18:27;;;;;;;13.43;5.47;;;15.20;99.90;;;;;;5059721;28;20070;-86
2021/08/01 00:20:53;;;;;;;15.48;6.13;;;15.30;99.90;;;;;;5072429;28;20403;-90
2021/08/01 00:23:19;;;;;;;14.05;5.82;;;15.30;99.90;;;;;;5077860;28;20071;-86
2021/08/01 00:25:45;;;;;;;16.67;5.80;;;15.30;99.90;;;;;;5082841;28;20078;-86
2021/08/01 00:28:10;;;;;;;22.40;6.07;;;15.20;99.90;;;;;;5086666;28;20090;-88
2021/08/01 00:30:37;;;;;;;15.05;5.75;;;15.20;99.90;;;;;;5073526;28;20036;-86
2021/08/01 00:33:03;;;;;;;16.42;5.43;;;15.30;99.90;;;;;;5056723;28;20507;-87
2021/08/01 00:35:29;;;;;;;18.95;6.18;;;15.20;99.90;;;;;;5069039;28;20040;-88
2021/08/01 00:37:54;;;;;;;20.35;6.15;;;15.20;99.90;;;;;;5103048;28;20608;-91
2021/08/01 00:40:22;;;;;;;19.15;5.82;;;15.30;99.90;;;;;;5106379;28;20051;-87
2021/08/01 00:42:50;;;;;;;24.33;6.30;;;15.30;99.90;;;;;;5053052;28;20127;-87
2021/08/01 00:45:16;;;;;;;12.98;5.85;;;15.20;99.90;;;;;;5068950;28;20517;-87
2021/08/01 00:47:45;;;;;;;16.33;5.50;;;15.30;99.90;;;;;;5090861;28;20384;-86
2021/08/01 00:50:13;;;;;;;22.73;6.28;;;15.20;99.90;;;;;;5056124;28;20139;-87
2021/08/01 00:52:40;;;;;;;22.20;6.20;;;15.20;99.90;;;;;;5073047;28;20052;-88
2021/08/01 00:55:10;;;;;;;15.00;5.78;;;15.20;99.90;;;;;;5103803;28;20391;-86
2021/08/01 00:57:37;;;;;;;14.48;5.53;;;15.10;99.90;;;;;;5104022;28;20060;-86
2021/08/01 01:00:13;;;;;;;13.23;5.80;;;15.10;99.90;;;;;;5084101;28;20047;-87
2021/08/01 01:02:45;;;;;;;22.83;6.65;;;15.10;99.90;;;;;;5094266;28;20051;-87
2021/08/01 01:05:21;;;;;;;16.95;5.35;;;15.10;99.90;;;;;;5070472;28;20047;-86
2021/08/01 01:08:09;;;;;;;19.13;6.15;;;15.10;99.90;;;;;;5075770;28;20043;-86
2021/08/01 01:10:39;;;;;;;13.25;4.82;;;15.00;99.90;;;;;;5086920;28;20065;-86
2021/08/01 01:13:20;;;;;;;17.92;6.35;;;15.00;99.90;;;;;;5085592;28;20052;-86
2021/08/01 01:15:53;;;;;;;17.25;6.05;;;14.90;99.90;;;;;;5091393;28;20479;-86
2021/08/01 01:18:48;;;;;;;26.38;5.95;;;14.80;99.90;;;;;;5113058;28;20543;-87
2021/08/01 01:21:25;;;;;;;17.90;7.53;;;14.80;99.90;;;;;;5080632;28;20051;-86
2021/08/01 01:23:56;;;;;;;17.83;5.80;;;14.80;99.90;;;;;;5087553;28;20051;-88
2021/08/01 01:26:43;;;;;;;15.50;6.70;;;14.70;99.90;;;;;;5080806;28;20062;-86
2021/08/01 01:29:31;;;;;;;15.52;6.68;;;14.70;99.90;;;;;;5112915;28;20043;-88
2021/08/01 01:32:16;;;;;;;19.13;6.25;;;14.60;99.90;;;;;;5094023;28;20035;-86
2021/08/01 01:34:47;;;;;;;15.27;5.75;;;14.50;99.90;;;;;;5095161;28;20066;-86
2021/08/01 01:37:18;;;;;;;15.05;6.60;;;14.50;99.90;;;;;;5092816;28;20035;-86
2021/08/01 01:39:46;;;;;;;23.92;6.25;;;14.50;99.90;;;;;;5077061;28;20460;-86
2021/08/01 01:42:15;;;;;;;19.50;6.20;;;14.40;99.90;;;;;;5103491;28;20052;-86
2021/08/01 01:44:44;;;;;;;18.90;6.18;;;14.50;99.90;;;;;;5107231;28;20123;-86
2021/08/01 01:47:11;;;;;;;20.58;6.97;;;14.50;99.90;;;;;;5082336;28;20043;-86
2021/08/01 01:49:37;;;;;;;23.63;7.03;;;14.50;99.90;;;;;;5081915;28;20491;-86
2021/08/01 01:52:05;;;;;;;19.50;6.00;;;14.40;99.90;;;;;;5089257;28;20044;-89
2021/08/01 01:54:34;;;;;;;22.77;6.47;;;14.40;99.90;;;;;;5059015;28;20062;-89
2021/08/01 01:57:01;;;;;;;24.05;5.32;;;14.40;99.90;;;;;;5089206;28;20044;-91
2021/08/01 01:59:27;;;;;;;9.65;5.60;;;14.40;99.90;;;;;;5085493;28;20514;-88
2021/08/01 02:01:53;;;;;;;19.65;5.70;;;14.40;99.90;;;;;;5080911;28;20040;-86
2021/08/01 02:04:18;;;;;;;48.10;6.68;;;14.40;99.90;;;;;;5094519;28;20047;-88
2021/08/01 02:06:44;;;;;;;26.10;6.70;;;14.40;99.90;;;;;;5098404;28;20051;-86
2021/08/01 02:09:28;;;;;;;22.83;6.32;;;14.40;99.90;;;;;;5058092;28;20040;-86
2021/08/01 02:12:12;;;;;;;25.55;7.25;;;14.40;99.90;;;;;;5074434;28;20450;-86
2021/08/01 02:15:02;;;;;;;37.13;7.65;;;14.40;99.90;;;;;;5106769;28;20070;-86
2021/08/01 02:17:43;;;;;;;24.60;7.07;;;14.40;99.90;;;;;;5089022;28;20039;-87
2021/08/01 02:20:11;;;;;;;30.60;7.13;;;14.40;99.90;;;;;;5093957;28;20726;-86
2021/08/01 02:22:37;;;;;;;20.70;5.85;;;14.40;99.90;;;;;;5093311;28;20059;-86
2021/08/01 02:25:05;;;;;;;29.75;6.97;;;14.40;99.90;;;;;;5093550;28;20426;-89
2021/08/01 02:27:34;;;;;;;21.65;6.07;;;14.40;99.90;;;;;;5091840;28;20127;-88
2021/08/01 02:30:02;;;;;;;27.45;7.53;;;14.50;99.90;;;;;;5067624;28;20054;-87
2021/08/01 02:32:30;;;;;;;16.65;6.07;;;14.40;99.90;;;;;;5080841;28;20074;-86
2021/08/01 02:34:57;;;;;;;25.65;6.55;;;14.40;99.90;;;;;;5093626;28;20059;-87
2021/08/01 02:37:24;;;;;;;15.65;6.05;;;14.50;99.90;;;;;;5077659;28;20047;-87
2021/08/01 02:39:51;;;;;;;19.42;6.65;;;14.40;99.90;;;;;;5080248;28;20472;-87
2021/08/01 02:42:18;;;;;;;27.63;6.05;;;14.50;99.90;;;;;;5064420;28;20075;-86
2021/08/01 02:44:45;;;;;;;14.68;6.03;;;14.40;99.90;;;;;;5103739;28;20035;-87
2021/08/01 02:47:16;;;;;;;17.38;6.93;;;14.50;99.90;;;;;;5086135;28;20047;-87
2021/08/01 02:49:44;;;;;;;26.35;7.03;;;14.50;99.90;;;;;;5088890;28;20096;-87
2021/08/01 02:52:29;;;;;;;20.75;6.40;;;14.50;99.90;;;;;;5073963;28;20042;-87
2021/08/01 02:54:57;;;;;;;15.90;6.40;;;14.50;99.90;;;;;;5092643;28;20055;-88
2021/08/01 02:57:26;;;;;;;24.38;7.28;;;14.50;99.90;;;;;;5048851;28;20058;-88
2021/08/01 02:59:53;;;;;;;30.83;6.80;;;14.50;99.90;;;;;;5080311;28;20040;-87
2021/08/01 03:02:19;;;;;;;19.73;6.72;;;14.50;99.90;;;;;;5065908;28;20055;-89
2021/08/01 03:04:46;;;;;;;17.55;7.10;;;14.50;99.90;;;;;;5073220;28;20048;-85
2021/08/01 03:07:13;;;;;;;30.30;7.53;;;14.50;99.90;;;;;;5070305;28;20518;-86
2021/08/01 03:09:39;;;;;;;45.67;8.70;;;14.50;99.90;;;;;;5080102;28;20073;-87
2021/08/01 03:12:12;;;;;;;20.45;7.85;;;14.50;99.90;;;;;;5068957;28;20055;-89
2021/08/01 03:14:38;;;;;;;21.50;7.75;;;14.50;99.90;;;;;;5069607;28;20536;-87
2021/08/01 03:17:05;;;;;;;19.52;7.38;;;14.50;99.90;;;;;;5073040;28;20400;-88
2021/08/01 03:19:34;;;;;;;17.02;8.10;;;14.50;99.90;;;;;;5059871;28;20065;-87
2021/08/01 03:22:00;;;;;;;18.80;7.70;;;14.50;99.90;;;;;;5093898;28;20065;-87
2021/08/01 03:24:27;;;;;;;18.92;7.32;;;14.60;99.90;;;;;;5058635;28;20287;-86
2021/08/01 03:26:53;;;;;;;14.35;7.80;;;14.60;99.90;;;;;;5081913;28;20047;-87
2021/08/01 03:29:19;;;;;;;18.48;7.90;;;14.60;99.90;;;;;;5045551;28;20128;-87
2021/08/01 03:31:45;;;;;;;24.67;7.53;;;14.60;99.90;;;;;;5057764;28;20148;-87
2021/08/01 03:34:10;;;;;;;13.70;7.18;;;14.60;99.90;;;;;;5062914;28;20044;-90
2021/08/01 03:36:36;;;;;;;35.78;8.32;;;14.60;99.90;;;;;;5077361;28;20042;-87
2021/08/01 03:39:03;;;;;;;19.13;6.82;;;14.60;99.90;;;;;;5076225;28;20472;-87
2021/08/01 03:41:29;;;;;;;28.13;7.25;;;14.60;99.90;;;;;;5092316;28;20099;-86
2021/08/01 03:43:55;;;;;;;30.40;7.65;;;14.60;99.90;;;;;;5083959;28;20397;-87
2021/08/01 03:46:21;;;;;;;18.10;7.40;;;14.60;99.90;;;;;;5101534;28;20039;-86
2021/08/01 03:48:47;;;;;;;22.63;7.78;;;14.60;99.90;;;;;;5095451;28;20045;-87
2021/08/01 03:51:13;;;;;;;25.15;9.20;;;14.60;99.90;;;;;;5075291;28;20040;-87
2021/08/01 03:53:38;;;;;;;21.08;8.52;;;14.60;99.90;;;;;;5078874;28;20065;-88
2021/08/01 03:56:05;;;;;;;24.95;8.95;;;14.60;99.90;;;;;;5077232;28;20043;-86
2021/08/01 03:58:31;;;;;;;13.48;8.73;;;14.60;99.90;;;;;;5076110;28;20036;-87
2021/08/01 04:00:57;;;;;;;21.90;9.25;;;14.60;99.90;;;;;;5064805;28;20035;-86
2021/08/01 04:03:23;;;;;;;22.38;10.13;;;14.60;99.90;;;;;;5082125;28;20609;-88
2021/08/01 04:05:49;;;;;;;16.70;10.02;;;14.60;99.90;;;;;;5063280;28;20069;-86
2021/08/01 04:08:15;;;;;;;22.65;10.90;;;14.60;99.90;;;;;;5072884;28;20036;-88
2021/08/01 04:10:40;;;;;;;16.15;9.68;;;14.60;99.90;;;;;;5081005;28;20040;-87
2021/08/01 04:13:06;;;;;;;18.75;10.32;;;14.60;99.90;;;;;;5072931;28;20079;-87
2021/08/01 04:15:32;;;;;;;19.95;11.60;;;14.60;99.90;;;;;;5090406;28;20039;-88
2021/08/01 04:17:58;;;;;;;30.52;10.50;;;14.60;99.90;;;;;;5059093;28;20040;-86
2021/08/01 04:20:24;;;;;;;20.73;12.18;;;14.60;99.90;;;;;;5074920;28;20028;-86
2021/08/01 04:22:54;;;;;;;29.55;12.98;;;14.60;99.90;;;;;;5053618;28;20080;-86
2021/08/01 04:25:20;;;;;;;22.52;11.27;;;14.60;99.90;;;;;;5099633;28;20483;-86
2021/08/01 04:27:47;;;;;;;29.52;12.40;;;14.60;99.90;;;;;;5091816;28;20050;-86
2021/08/01 04:30:13;;;;;;;20.83;12.45;;;14.70;99.90;;;;;;5091483;28;20063;-90
2021/08/01 04:32:38;;;;;;;30.27;11.75;;;14.70;99.90;;;;;;5075738;28;20075;-88
2021/08/01 04:35:05;;;;;;;24.35;13.48;;;14.70;99.90;;;;;;5077697;28;20059;-86
2021/08/01 04:37:31;;;;;;;28.00;13.38;;;14.70;99.90;;;;;;5090958;28;20039;-87
2021/08/01 04:39:57;;;;;;;27.25;13.30;;;14.70;99.90;;;;;;5061231;28;20055;-87
2021/08/01 04:42:23;;;;;;;19.65;12.77;;;14.70;99.90;;;;;;5073944;28;20067;-87
2021/08/01 04:44:49;;;;;;;27.52;12.52;;;14.80;99.90;;;;;;5047076;28;20519;-86
2021/08/01 04:47:15;;;;;;;34.65;13.50;;;14.80;99.90;;;;;;5066196;28;20060;-89
2021/08/01 04:49:42;;;;;;;30.45;13.88;;;14.80;99.90;;;;;;5086008;28;20453;-87
2021/08/01 04:52:15;;;;;;;26.08;13.20;;;14.90;99.90;;;;;;5112933;28;20041;-87
2021/08/01 04:54:40;;;;;;;23.73;12.48;;;14.90;99.90;;;;;;5096124;28;20204;-87
2021/08/01 04:57:06;;;;;;;26.52;13.13;;;14.90;99.90;;;;;;5085421;28;20484;-88
2021/08/01 04:59:35;;;;;;;26.95;12.05;;;14.90;99.90;;;;;;5070875;28;20509;-88
2021/08/01 05:02:02;;;;;;;29.00;13.90;;;15.00;99.90;;;;;;5100624;28;20051;-88
2021/08/01 05:04:29;;;;;;;22.58;12.75;;;15.00;99.90;;;;;;5114273;28;20039;-87
2021/08/01 05:06:55;;;;;;;20.95;12.15;;;15.00;99.90;;;;;;5094253;28;20051;-88
2021/08/01 05:09:21;;;;;;;18.38;12.73;;;15.10;99.90;;;;;;5080733;28;20394;-89
2021/08/01 05:11:47;;;;;;;17.30;11.88;;;15.10;99.90;;;;;;5104365;28;20043;-88
2021/08/01 05:14:13;;;;;;;24.35;11.77;;;15.10;99.90;;;;;;5096237;28;20414;-91
2021/08/01 05:16:40;;;;;;;19.52;12.40;;;15.20;99.90;;;;;;5087910;28;20059;-90
2021/08/01 05:19:06;;;;;;;20.52;12.05;;;15.20;99.90;;;;;;5059705;28;20527;-88
2021/08/01 05:21:32;;;;;;;24.55;11.63;;;15.20;99.90;;;;;;5075510;28;20036;-87
2021/08/01 05:23:58;;;;;;;25.02;11.35;;;15.20;99.90;;;;;;5093991;28;20124;-88
2021/08/01 05:26:24;;;;;;;17.05;11.55;;;15.30;99.90;;;;;;5041889;28;20456;-88
2021/08/01 05:28:49;;;;;;;25.52;10.88;;;15.30;99.90;;;;;;5058593;28;20499;-88
2021/08/01 05:31:15;;;;;;;18.67;11.23;;;15.30;99.90;;;;;;5057773;28;20495;-92
2021/08/01 05:33:41;;;;;;;18.00;11.05;;;15.40;99.90;;;;;;5083501;28;20145;-88
2021/08/01 05:36:11;;;;;;;15.95;11.05;;;15.40;99.90;;;;;;5066811;28;20037;-89
2021/08/01 05:38:37;;;;;;;;;;;15.40;99.90;;;;;;5074914;28;20508;-88
2021/08/01 05:41:04;;;;;;;17.63;11.13;;;15.50;99.90;;;;;;5075220;28;19924;-88
2021/08/01 05:43:30;;;;;;;26.83;12.48;;;15.50;99.90;;;;;;5093081;28;20047;-88
2021/08/01 05:45:57;;;;;;;21.35;11.68;;;15.50;99.90;;;;;;5058856;28;20044;-88
2021/08/01 05:48:23;;;;;;;22.58;11.27;;;15.50;99.90;;;;;;5074632;28;20468;-88
2021/08/01 05:50:50;;;;;;;17.75;12.15;;;15.60;99.90;;;;;;5074841;28;20055;-87
2021/08/01 05:53:20;;;;;;;25.92;14.48;;;15.60;99.90;;;;;;5101771;28;20051;-89
2021/08/01 05:55:49;;;;;;;17.98;12.38;;;15.60;99.90;;;;;;5075936;28;20070;-87
2021/08/01 05:58:15;;;;;;;21.20;12.33;;;15.60;99.90;;;;;;5070042;28;20069;-87
2021/08/01 06:00:41;;;;;;;21.38;12.82;;;15.70;99.90;;;;;;5074787;28;20290;-87
2021/08/01 06:03:07;;;;;;;24.00;13.60;;;15.70;99.90;;;;;;5074359;28;20067;-87
2021/08/01 06:05:33;;;;;;;25.15;12.43;;;15.70;99.90;;;;;;5068909;28;20510;-88
2021/08/01 06:07:58;;;;;;;25.50;12.45;;;15.80;99.90;;;;;;5058174;28;20040;-88
2021/08/01 06:10:24;;;;;;;28.10;11.98;;;15.80;99.90;;;;;;5075288;28;20423;-88
2021/08/01 06:12:50;;;;;;;17.52;10.93;;;15.90;99.90;;;;;;5112127;28;20621;-89
2021/08/01 06:15:16;;;;;;;17.85;11.68;;;16.00;99.90;;;;;;5095360;28;20089;-88
2021/08/01 06:17:42;;;;;;;14.25;11.55;;;16.00;99.90;;;;;;5091548;28;20044;-87
2021/08/01 06:20:10;;;;;;;17.27;10.73;;;16.10;99.90;;;;;;5074535;28;20046;-88
2021/08/01 06:22:35;;;;;;;20.27;11.32;;;16.20;99.90;;;;;;5072255;28;20073;-88
2021/08/01 06:25:02;;;;;;;18.80;10.65;;;16.30;99.90;;;;;;5080164;28;20048;-90
2021/08/01 06:27:28;;;;;;;15.52;11.18;;;16.30;99.90;;;;;;5064532;28;20074;-87
2021/08/01 06:29:54;;;;;;;15.75;10.52;;;16.40;99.90;;;;;;5107131;28;20048;-87
2021/08/01 06:32:19;;;;;;;16.45;10.10;;;16.50;99.90;;;;;;5093084;28;20097;-92
2021/08/01 06:34:45;;;;;;;18.45;10.38;;;16.60;99.90;;;;;;5065466;28;20039;-88
2021/08/01 06:37:11;;;;;;;19.95;11.18;;;16.70;99.90;;;;;;5054838;28;20067;-87
2021/08/01 06:39:37;;;;;;;20.98;11.57;;;16.80;99.90;;;;;;5070095;28;20055;-87
2021/08/01 06:42:03;;;;;;;21.50;12.52;;;16.80;99.90;;;;;;5074749;28;20094;-87
2021/08/01 06:44:29;;;;;;;18.33;12.07;;;16.80;99.90;;;;;;5057225;28;20483;-87
2021/08/01 06:46:54;;;;;;;21.98;11.43;;;16.80;99.90;;;;;;5063684;28;20035;-87
2021/08/01 06:49:21;;;;;;;22.88;11.40;;;16.80;99.90;;;;;;5061733;28;20032;-88
2021/08/01 06:51:47;;;;;;;17.88;10.90;;;16.80;99.90;;;;;;5063253;28;20546;-88
2021/08/01 06:54:12;;;;;;;16.63;11.30;;;16.80;99.90;;;;;;5058742;28;20048;-87
2021/08/01 06:56:38;;;;;;;18.48;11.02;;;16.90;99.90;;;;;;5057379;28;20040;-88
2021/08/01 06:59:04;;;;;;;13.68;9.95;;;17.00;99.90;;;;;;5041805;28;20044;-87
2021/08/01 07:01:32;;;;;;;21.05;10.70;;;17.10;99.90;;;;;;5038781;28;20472;-85
2021/08/01 07:03:58;;;;;;;17.05;10.18;;;17.40;99.90;;;;;;5075440;28;20120;-87
2021/08/01 07:06:24;;;;;;;15.60;8.90;;;17.50;99.90;;;;;;5056325;28;20115;-89
2021/08/01 07:08:50;;;;;;;16.23;9.98;;;17.60;99.90;;;;;;5072986;28;20111;-88
2021/08/01 07:11:15;;;;;;;15.23;9.10;;;17.70;99.90;;;;;;5055600;28;20051;-88
2021/08/01 07:13:42;;;;;;;12.65;9.35;;;17.70;99.90;;;;;;5070577;28;20048;-86
2021/08/01 07:16:08;;;;;;;17.48;9.80;;;17.70;99.90;;;;;;5071324;28;20086;-87
2021/08/01 07:18:34;;;;;;;14.82;8.63;;;17.70;99.90;;;;;;5088872;28;20043;-88
2021/08/01 07:21:00;;;;;;;15.38;9.07;;;17.80;99.90;;;;;;5072158;28;20454;-87
2021/08/01 07:23:27;;;;;;;13.60;8.18;;;17.80;99.90;;;;;;5054967;28;20043;-88
2021/08/01 07:25:53;;;;;;;13.10;8.02;;;17.90;99.90;;;;;;5038948;28;20040;-87
2021/08/01 07:28:19;;;;;;;11.30;7.43;;;17.90;99.90;;;;;;5031893;28;20080;-86
2021/08/01 07:30:44;;;;;;;11.30;7.25;;;18.00;99.90;;;;;;5086160;28;20261;-87
2021/08/01 07:33:10;;;;;;;8.40;6.93;;;18.00;99.90;;;;;;5068472;28;20057;-86
2021/08/01 07:35:36;;;;;;;8.38;6.90;;;17.90;99.90;;;;;;5067838;28;20036;-86
2021/08/01 07:38:03;;;;;;;9.55;6.68;;;17.90;99.90;;;;;;5051628;28;20487;-86
2021/08/01 07:40:29;;;;;;;11.80;8.45;;;17.90;99.90;;;;;;5086755;28;20472;-89
2021/08/01 07:42:55;;;;;;;11.32;9.00;;;18.00;99.90;;;;;;5068268;28;20060;-89
2021/08/01 07:45:34;;;;;;;13.27;9.27;;;18.00;99.90;;;;;;5051739;28;20036;-86
2021/08/01 07:48:01;;;;;;;15.53;10.67;;;18.10;99.90;;;;;;5063298;28;20051;-87
2021/08/01 07:50:28;;;;;;;18.48;10.00;;;18.20;99.90;;;;;;5085322;28;20051;-87
2021/08/01 07:52:54;;;;;;;21.55;10.27;;;18.30;99.90;;;;;;5050299;28;20044;-86
2021/08/01 07:55:20;;;;;;;16.98;9.27;;;18.30;99.90;;;;;;5071043;28;20036;-87
2021/08/01 07:57:46;;;;;;;13.45;9.27;;;18.30;99.90;;;;;;5088203;28;20534;-86
2021/08/01 08:00:13;;;;;;;11.07;8.40;;;18.40;99.90;;;;;;5054548;28;20055;-87
2021/08/01 08:02:43;;;;;;;13.60;9.02;;;18.40;99.90;;;;;;5070448;28;20048;-87
2021/08/01 08:05:09;;;;;;;11.52;7.28;;;18.60;99.90;;;;;;5070573;28;20101;-87
2021/08/01 08:07:35;;;;;;;13.55;6.75;;;18.70;99.90;;;;;;5070344;28;20048;-88
2021/08/01 08:10:01;;;;;;;11.68;6.85;;;18.80;99.90;;;;;;5067256;28;20044;-87
2021/08/01 08:12:27;;;;;;;6.25;5.70;;;18.90;99.90;;;;;;5087041;28;20053;-87
2021/08/01 08:14:52;;;;;;;9.00;6.78;;;19.00;99.90;;;;;;5052733;28;20048;-87
2021/08/01 08:17:18;;;;;;;11.00;6.55;;;19.00;99.90;;;;;;5088852;28;20040;-87
2021/08/01 08:19:44;;;;;;;24.58;8.77;;;18.90;99.90;;;;;;5108955;28;20093;-88
2021/08/01 08:22:10;;;;;;;8.65;6.28;;;18.80;99.90;;;;;;5091533;28;20418;-87
2021/08/01 08:24:37;;;;;;;5.95;5.45;;;18.90;99.90;;;;;;5054242;28;20040;-87
2021/08/01 08:27:03;;;;;;;7.38;5.05;;;19.00;99.90;;;;;;5079574;28;20039;-88
2021/08/01 08:29:29;;;;;;;8.43;5.22;;;19.10;99.90;;;;;;5076755;28;20097;-87
2021/08/01 08:31:55;;;;;;;6.63;5.97;;;19.20;99.90;;;;;;5093190;28;20051;-85
2021/08/01 08:34:23;;;;;;;6.78;6.07;;;19.10;99.90;;;;;;5094194;28;20123;-89
2021/08/01 08:36:51;;;;;;;7.95;4.72;;;19.10;99.90;;;;;;5093965;28;20032;-89
2021/08/01 08:39:22;;;;;;;4.82;4.38;;;19.10;99.90;;;;;;5090331;28;20044;-89
2021/08/01 08:41:49;;;;;;;11.00;3.58;;;18.80;99.90;;;;;;5073903;28;20050;-88
2021/08/01 08:44:16;;;;;;;9.80;2.72;;;18.10;99.90;;;;;;5076459;28;20044;-87
2021/08/01 08:46:42;;;;;;;12.05;2.05;;;17.30;99.90;;;;;;5062400;28;20043;-89
2021/08/01 08:49:12;;;;;;;17.40;1.80;;;16.80;99.90;;;;;;5075556;28;20112;-89
2021/08/01 08:51:42;;;;;;;5.97;1.15;;;16.20;99.90;;;;;;5059144;28;20403;-91
2021/08/01 08:54:20;;;;;;;;;;;15.80;99.90;;;;;;5076691;28;20082;-91
2021/08/01 08:56:48;;;;;;;4.65;0.70;;;15.70;99.90;;;;;;5074923;28;19924;-92
2021/08/01 08:59:23;;;;;;;3.35;0.70;;;15.50;99.90;;;;;;5073202;28;20052;-92
2021/08/01 09:01:49;;;;;;;10.30;0.98;;;15.40;99.90;;;;;;5059540;28;20047;-90
2021/08/01 09:04:15;;;;;;;11.85;1.35;;;15.40;99.90;;;;;;5076341;28;20040;-89
2021/08/01 09:06:42;;;;;;;4.18;1.25;;;15.30;99.90;;;;;;5089725;28;20085;-85
2021/08/01 09:09:10;;;;;;;10.73;1.25;;;15.30;99.90;;;;;;5070512;28;20044;-88
2021/08/01 09:11:36;;;;;;;10.57;0.75;;;15.30;99.90;;;;;;5065469;28;20161;-88
2021/08/01 09:14:04;;;;;;;8.30;1.05;;;15.30;99.90;;;;;;5089165;28;20051;-87
2021/08/01 09:16:44;;;;;;;5.07;0.85;;;15.30;99.90;;;;;;5094789;28;20077;-86
2021/08/01 09:19:23;;;;;;;4.90;0.77;;;15.20;99.90;;;;;;5094894;28;20039;-87
2021/08/01 09:21:48;;;;;;;4.18;0.70;;;15.20;99.90;;;;;;5094667;28;20119;-86
2021/08/01 09:24:14;;;;;;;6.20;1.08;;;15.30;99.90;;;;;;5077510;28;20118;-85
2021/08/01 09:26:50;;;;;;;5.30;0.90;;;15.30;99.90;;;;;;5073702;28;20089;-87
2021/08/01 09:29:16;;;;;;;6.18;0.93;;;15.40;99.90;;;;;;5074368;28;20064;-86
2021/08/01 09:31:43;;;;;;;8.05;0.68;;;15.40;99.90;;;;;;5091034;28;20156;-87
2021/08/01 09:34:26;;;;;;;1.33;0.73;;;15.50;99.90;;;;;;5058694;28;20044;-87
2021/08/01 09:37:03;;;;;;;3.88;1.10;;;15.60;99.90;;;;;;5072743;28;20036;-86
2021/08/01 09:40:03;;;;;;;5.15;0.90;;;15.60;99.90;;;;;;5073752;28;20097;-86
2021/08/01 09:42:47;;;;;;;2.55;1.10;;;15.80;99.90;;;;;;5064685;28;20152;-87
2021/08/01 09:45:17;;;;;;;2.05;1.10;;;16.20;99.90;;;;;;5073508;28;20035;-86
2021/08/01 09:47:46;;;;;;;1.52;0.47;;;16.30;99.90;;;;;;5089848;28;20504;-87
2021/08/01 09:50:13;;;;;;;2.05;0.80;;;16.30;99.90;;;;;;5071805;28;20044;-86
2021/08/01 09:52:40;;;;;;;2.25;0.95;;;16.30;99.90;;;;;;5057441;28;20058;-86
2021/08/01 09:55:19;;;;;;;4.40;0.73;;;16.30;99.90;;;;;;5073007;28;20044;-86
2021/08/01 09:57:53;;;;;;;2.95;0.50;;;16.50;99.90;;;;;;5073282;28;20063;-87
2021/08/01 10:00:19;;;;;;;2.70;0.50;;;16.50;99.90;;;;;;5056434;28;20039;-87
2021/08/01 10:02:45;;;;;;;3.17;0.77;;;16.50;99.90;;;;;;5090709;28;20044;-87
2021/08/01 10:05:15;;;;;;;2.47;0.55;;;16.60;99.90;;;;;;5073115;28;20054;-89
2021/08/01 10:07:46;;;;;;;4.57;1.38;;;16.80;99.90;;;;;;5073408;28;20093;-88
2021/08/01 10:10:30;;;;;;;2.95;0.80;;;16.70;99.90;;;;;;5084600;28;20043;-85
2021/08/01 10:13:00;;;;;;;5.50;0.70;;;16.70;99.90;;;;;;5059457;28;20039;-86
2021/08/01 10:15:26;;;;;;;0.60;0.60;;;16.70;99.90;;;;;;5093810;28;20585;-86
2021/08/01 10:17:53;;;;;;;1.92;0.80;;;16.90;99.90;;;;;;5111112;28;20105;-86
2021/08/01 10:20:19;;;;;;;3.25;0.70;;;17.00;99.90;;;;;;5063507;28;20073;-84
2021/08/01 10:22:46;;;;;;;2.42;0.80;;;17.20;99.90;;;;;;5076070;28;20052;-87
2021/08/01 10:25:24;;;;;;;2.25;0.82;;;17.20;99.90;;;;;;5077029;28;20044;-87
2021/08/01 10:27:52;;;;;;;1.30;0.90;;;17.30;99.90;;;;;;5110833;28;20043;-86
2021/08/01 10:30:21;;;;;;;2.33;0.70;;;17.40;99.90;;;;;;5093338;28;20036;-86
2021/08/01 10:33:07;;;;;;;1.35;1.00;;;17.20;99.90;;;;;;5091396;28;20051;-88
2021/08/01 10:35:41;;;;;;;5.05;0.90;;;17.10;99.90;;;;;;5108277;28;20044;-87
2021/08/01 10:38:11;;;;;;;5.57;1.17;;;17.30;99.90;;;;;;5092364;28;20035;-87
2021/08/01 10:40:38;;;;;;;3.15;1.35;;;17.60;99.90;;;;;;5111392;28;20036;-87
2021/08/01 10:43:09;;;;;;;7.68;1.42;;;17.60;99.90;;;;;;5091988;28;20059;-87
2021/08/01 10:45:36;;;;;;;3.75;1.10;;;17.60;99.90;;;;;;5111451;28;20121;-88
2021/08/01 10:48:03;;;;;;;3.78;1.10;;;17.60;99.90;;;;;;5109822;28;20414;-87
2021/08/01 10:50:31;;;;;;;5.72;1.20;;;17.70;99.90;;;;;;5085511;28;20495;-87
2021/08/01 10:53:18;;;;;;;3.95;0.90;;;17.70;99.90;;;;;;5110486;28;20044;-86
2021/08/01 10:55:45;;;;;;;4.22;0.82;;;17.80;99.90;;;;;;5092887;28;20040;-86
2021/08/01 10:58:16;;;;;;;2.30;1.08;;;17.80;99.90;;;;;;5109973;28;20051;-85
2021/08/01 11:01:02;;;;;;;2.67;1.48;;;17.70;99.90;;;;;;5104110;28;20040;-85
2021/08/01 11:03:29;;;;;;;5.53;1.15;;;17.70;99.90;;;;;;5087614;28;20040;-86
2021/08/01 11:05:56;;;;;;;3.50;0.90;;;17.80;99.90;;;;;;5091970;28;20624;-86
2021/08/01 11:08:22;;;;;;;6.55;2.45;;;17.90;99.90;;;;;;5092859;28;20039;-86
2021/08/01 11:11:12;;;;;;;4.60;1.70;;;17.90;99.90;;;;;;5065698;28;20415;-87
2021/08/01 11:13:48;;;;;;;7.55;1.80;;;18.10;99.90;;;;;;5110905;28;20036;-87
2021/08/01 11:16:40;;;;;;;3.50;0.90;;;18.10;99.90;;;;;;5091354;28;20051;-86
2021/08/01 11:19:33;;;;;;;3.65;0.90;;;18.10;99.90;;;;;;5083053;28;20055;-87
2021/08/01 11:21:59;;;;;;;4.95;0.80;;;18.00;99.90;;;;;;5093475;28;20124;-87
2021/08/01 11:24:25;;;;;;;2.83;0.85;;;18.50;99.90;;;;;;5092281;28;20664;-87
2021/08/01 11:27:11;;;;;;;2.35;0.80;;;18.90;99.90;;;;;;5092931;28;20063;-88
2021/08/01 11:30:13;;;;;;;5.57;0.90;;;19.00;99.90;;;;;;5091876;28;20425;-87
2021/08/01 11:32:52;;;;;;;3.13;1.00;;;19.10;99.90;;;;;;5012669;28;20447;-87
2021/08/01 11:35:18;;;;;;;1.60;0.70;;;19.10;99.90;;;;;;5096032;28;20051;-87
2021/08/01 11:37:45;;;;;;;3.85;1.27;;;19.10;99.90;;;;;;5086092;28;20089;-88
2021/08/01 11:40:12;;;;;;;6.20;1.20;;;18.80;99.90;;;;;;5080883;28;20039;-87
2021/08/01 11:42:39;;;;;;;1.85;1.20;;;18.50;99.90;;;;;;5091707;28;20108;-87
2021/08/01 11:45:13;;;;;;;1.88;1.08;;;18.30;99.90;;;;;;5090769;28;20387;-88
2021/08/01 11:47:44;;;;;;;4.38;1.30;;;18.40;99.90;;;;;;5109942;28;20073;-87
2021/08/01 11:50:12;;;;;;;4.22;1.20;;;18.80;99.90;;;;;;5105870;28;20035;-87
2021/08/01 11:52:43;;;;;;;3.95;1.10;;;19.10;99.90;;;;;;5091886;28;20089;-88
2021/08/01 11:55:15;;;;;;;1.75;0.70;;;19.20;99.90;;;;;;5090954;28;20038;-87
2021/08/01 11:57:44;;;;;;;5.68;0.68;;;19.70;99.90;;;;;;5110191;28;20036;-86
2021/08/01 12:00:10;;;;;;;3.83;1.02;;;19.70;99.90;;;;;;5106722;28;20109;-86
2021/08/01 12:02:38;;;;;;;2.97;1.02;;;19.70;99.90;;;;;;5043600;28;20479;-87
2021/08/01 12:05:05;;;;;;;6.68;1.05;;;19.80;99.90;;;;;;5084893;28;20483;-88
2021/08/01 12:07:41;;;;;;;10.15;0.85;;;19.70;99.90;;;;;;5109737;28;20027;-88
2021/08/01 12:10:14;;;;;;;6.30;1.20;;;19.70;99.90;;;;;;5079323;28;20044;-89
2021/08/01 12:12:40;;;;;;;0.63;0.60;;;20.00;99.90;;;;;;5071681;28;20040;-88
2021/08/01 12:15:07;;;;;;;5.07;1.00;;;20.00;99.90;;;;;;5090709;28;20525;-88
2021/08/01 12:17:36;;;;;;;6.47;1.13;;;19.90;99.90;;;;;;5074217;28;20100;-87
2021/08/01 12:20:02;;;;;;;7.60;0.98;;;19.90;99.90;;;;;;5090899;28;20489;-88
2021/08/01 12:22:28;;;;;;;2.22;0.90;;;19.90;99.90;;;;;;5073458;28;20043;-88
2021/08/01 12:24:56;;;;;;;1.65;0.75;;;19.80;99.90;;;;;;5087150;28;20445;-89
2021/08/01 12:27:28;;;;;;;1.33;0.90;;;19.80;99.90;;;;;;5081169;28;20031;-89
2021/08/01 12:29:55;;;;;;;3.70;1.10;;;19.70;99.90;;;;;;5069295;28;20476;-89
2021/08/01 12:32:27;;;;;;;5.18;1.00;;;19.70;99.90;;;;;;5070453;28;20044;-88
2021/08/01 12:35:19;;;;;;;1.75;0.90;;;19.80;99.90;;;;;;5069690;28;20543;-88
2021/08/01 12:37:44;;;;;;;2.88;0.70;;;19.90;99.90;;;;;;5054121;28;20039;-89
2021/08/01 12:40:27;;;;;;;4.72;0.80;;;19.90;99.90;;;;;;5087478;28;20044;-88
2021/08/01 12:42:55;;;;;;;4.85;0.98;;;19.90;99.90;;;;;;5069978;28;20052;-88
2021/08/01 12:45:22;;;;;;;3.13;0.82;;;20.10;99.90;;;;;;5069430;28;20035;-87
2021/08/01 12:47:48;;;;;;;3.63;0.95;;;20.30;99.90;;;;;;5088901;28;20044;-88